Aviation Digital Data Service (ADDS)

Output produced by METARs form (2200 UTC 17 November 2018)
found at http://www.aviationweather.gov/metar/data/
 
KPIT 172151Z 22004KT 10SM BKN028 OVC100 03/M01 A3027 RMK AO2 SLP267 T00331006
KPIT 172055Z 1721/1824 28005KT P6SM BKN025 
     FM180600 00000KT 4SM BR OVC015 
     FM181600 00000KT P6SM BKN020
       
KITH 172156Z 30010KT 10SM BKN018 OVC035 01/M02 A3021 RMK AO2 SLP240 T00111017
KITH 171733Z 1718/1818 28010KT P6SM OVC015 
     FM180000 30007KT P6SM OVC025 
     FM181300 14003KT P6SM OVC015 
     TEMPO 1816/1818 2SM -SHSN
       
KBOS 172154Z 26008G16KT 10SM OVC050 08/M02 A3011 RMK AO2 SLP196 T00781017
KBOS 172102Z 1721/1824 27012KT P6SM BKN040 
     FM180600 32008KT P6SM SCT040 
     FM182000 21004KT P6SM BKN040